TimeCST,TemperatureF,Dew PointF,Humidity,Sea Level PressureIn,VisibilityMPH,Wind Direction,Wind SpeedMPH,Gust SpeedMPH,PrecipitationIn,Events,Conditions,WindDirDegrees,DateUTC
12:55 AM,27.0,19.9,75,30.17,10.0,SSW,12.7,-,N/A,,Clear,210,2013-01-05 06:55:00
1:55 AM,26.1,19.9,78,30.17,10.0,West,4.6,-,N/A,,Partly Cloudy,270,2013-01-05 07:55:00
2:55 AM,28.0,23.0,81,30.16,10.0,South,9.2,-,N/A,,Overcast,190,2013-01-05 08:55:00
3:55 AM,30.0,24.1,79,30.14,10.0,South,13.8,-,N/A,,Overcast,190,2013-01-05 09:55:00
4:55 AM,30.9,26.1,82,30.12,10.0,SSW,12.7,-,N/A,,Overcast,200,2013-01-05 10:55:00
5:55 AM,32.0,26.1,79,30.10,10.0,South,13.8,-,N/A,,Mostly Cloudy,190,2013-01-05 11:55:00
6:55 AM,32.0,27.0,82,30.11,10.0,SSW,16.1,-,N/A,,Partly Cloudy,200,2013-01-05 12:55:00
7:55 AM,30.0,26.1,85,30.12,10.0,South,13.8,-,N/A,,Partly Cloudy,190,2013-01-05 13:55:00
8:55 AM,30.9,26.1,82,30.12,10.0,SSW,15.0,-,N/A,,Clear,200,2013-01-05 14:55:00
9:55 AM,33.1,27.0,78,30.13,10.0,SW,15.0,-,N/A,,Clear,220,2013-01-05 15:55:00
10:55 AM,34.0,27.0,75,30.14,10.0,WSW,17.3,26.5,N/A,,Scattered Clouds,250,2013-01-05 16:55:00
11:02 AM,33.8,26.6,75,30.10,10.0,West,16.1,25.3,N/A,,Mostly Cloudy,260,2013-01-05 17:02:00
11:30 AM,28.4,24.8,86,30.07,10.0,WSW,10.4,-,N/A,,Scattered Clouds,250,2013-01-05 17:30:00
11:55 AM,28.9,23.0,78,30.11,9.0,WSW,9.2,-,N/A,,Clear,250,2013-01-05 17:55:00
12:55 PM,27.0,18.0,69,30.12,10.0,West,20.7,-,N/A,,Clear,260,2013-01-05 18:55:00
1:55 PM,25.0,16.0,69,30.14,10.0,West,11.5,-,N/A,,Clear,270,2013-01-05 19:55:00
2:55 PM,26.1,16.0,66,30.14,10.0,West,12.7,-,N/A,,Clear,280,2013-01-05 20:55:00
3:55 PM,27.0,17.1,66,30.16,10.0,WSW,9.2,-,N/A,,Clear,250,2013-01-05 21:55:00
4:55 PM,28.0,18.0,66,30.16,10.0,West,12.7,-,N/A,,Clear,260,2013-01-05 22:55:00
5:55 PM,30.0,19.9,66,30.17,10.0,WSW,11.5,-,N/A,,Clear,250,2013-01-05 23:55:00
6:55 PM,30.0,21.9,72,30.20,10.0,West,11.5,-,N/A,,Clear,260,2013-01-06 00:55:00
7:55 PM,28.9,21.9,75,30.22,10.0,West,11.5,-,N/A,,Clear,270,2013-01-06 01:55:00
8:55 PM,28.0,21.0,75,30.25,10.0,West,11.5,-,N/A,,Clear,270,2013-01-06 02:55:00
9:55 PM,27.0,19.9,75,30.26,10.0,West,10.4,-,N/A,,Clear,280,2013-01-06 03:55:00
10:55 PM,26.1,18.0,71,30.27,10.0,West,10.4,-,N/A,,Clear,280,2013-01-06 04:55:00
11:55 PM,28.9,18.0,64,30.29,10.0,NW,9.2,-,N/A,,Clear,310,2013-01-06 05:55:00